createdAt,value
2019-03-25T00:00:59.609Z,0
2019-03-25T00:01:59.600Z,0
2019-03-25T00:02:59.828Z,0
2019-03-25T00:03:59.603Z,0
2019-03-25T00:04:59.804Z,0
2019-03-25T00:05:59.533Z,0
2019-03-25T00:06:59.763Z,0
2019-03-25T00:07:59.750Z,0
2019-03-25T00:09:11.954Z,0
2019-03-25T00:09:59.468Z,0
2019-03-25T00:10:59.706Z,0
2019-03-25T00:11:59.688Z,0
2019-03-25T00:12:59.671Z,0
2019-03-25T00:13:59.660Z,0
2019-03-25T00:14:59.639Z,0
2019-03-25T00:16:01.352Z,0
2019-03-25T00:16:59.605Z,0
2019-03-25T00:17:59.345Z,0
2019-03-25T00:18:59.573Z,0
2019-03-25T00:19:59.559Z,0
2019-03-25T00:20:59.544Z,0
2019-03-25T00:21:59.304Z,0
2019-03-25T00:22:59.525Z,0
2019-03-25T00:23:59.498Z,0
2019-03-25T00:24:59.490Z,0
2019-03-25T00:25:59.476Z,0
2019-03-25T00:26:59.240Z,0
2019-03-25T00:27:59.450Z,0
2019-03-25T00:28:58.936Z,0
2019-03-25T00:29:59.405Z,0
2019-03-25T00:30:59.147Z,0
2019-03-25T00:31:59.372Z,0
2019-03-25T00:32:59.369Z,0
2019-03-25T00:33:59.353Z,0
2019-03-25T00:34:59.338Z,0
2019-03-25T00:35:59.364Z,0
2019-03-25T00:36:59.054Z,0
2019-03-25T00:37:59.282Z,0
2019-03-25T00:38:59.265Z,0
2019-03-25T00:39:59.250Z,0
2019-03-25T00:40:59.243Z,0
2019-03-25T00:41:59.246Z,0
2019-03-25T00:42:59.216Z,0
2019-03-25T00:43:58.941Z,0
2019-03-25T00:44:59.173Z,0
2019-03-25T00:45:59.157Z,0
2019-03-25T00:46:58.650Z,0
2019-03-25T00:47:59.134Z,0
2019-03-25T00:48:58.864Z,0
2019-03-25T00:49:59.243Z,0
2019-03-25T00:50:59.083Z,0
2019-03-25T00:51:59.063Z,0
2019-03-25T00:52:59.049Z,0
2019-03-25T00:53:59.032Z,0
2019-03-25T00:54:58.922Z,0
2019-03-25T00:55:59.010Z,0
2019-03-25T00:56:58.989Z,0
2019-03-25T00:57:58.722Z,0
2019-03-25T00:58:58.961Z,0
2019-03-25T00:59:58.945Z,0
2019-03-25T01:00:58.692Z,0
2019-03-25T01:01:58.907Z,0
2019-03-25T01:02:58.896Z,0
2019-03-25T01:03:58.874Z,0
2019-03-25T01:04:58.860Z,0
2019-03-25T01:05:58.852Z,0
2019-03-25T01:06:58.824Z,0
2019-03-25T01:07:58.815Z,0
2019-03-25T01:08:58.794Z,0
2019-03-25T01:09:58.782Z,0
2019-03-25T01:10:58.765Z,0
2019-03-25T01:11:58.754Z,0
2019-03-25T01:12:58.729Z,0
2019-03-25T01:13:58.719Z,0
2019-03-25T01:14:58.457Z,0
2019-03-25T01:15:58.684Z,0
2019-03-25T01:16:58.672Z,0
2019-03-25T01:17:58.658Z,0
2019-03-25T01:18:58.633Z,0
2019-03-25T01:19:58.625Z,0
2019-03-25T01:20:58.367Z,0
2019-03-25T01:21:58.343Z,0
2019-03-25T01:22:58.584Z,0
2019-03-25T01:23:58.555Z,0
2019-03-25T01:25:08.870Z,0
2019-03-25T01:25:58.524Z,0
2019-03-25T01:26:58.520Z,0
2019-03-25T01:27:58.490Z,0
2019-03-25T01:28:58.479Z,0
2019-03-25T01:29:58.458Z,0
2019-03-25T01:30:58.440Z,0
2019-03-25T01:31:58.434Z,0
2019-03-25T01:32:58.411Z,0
2019-03-25T01:33:58.401Z,0
2019-03-25T01:34:58.137Z,0
2019-03-25T01:35:58.370Z,0
2019-03-25T01:36:58.099Z,0
2019-03-25T01:37:58.077Z,0
2019-03-25T01:38:58.332Z,0
2019-03-25T01:39:58.131Z,0
2019-03-25T01:40:58.031Z,0
2019-03-25T01:41:58.015Z,0
2019-03-25T01:42:58.258Z,0
2019-03-25T01:43:58.235Z,0
2019-03-25T01:44:58.212Z,0
2019-03-25T01:45:57.961Z,0
2019-03-25T01:46:58.185Z,0
2019-03-25T01:47:58.172Z,0
2019-03-25T01:48:58.148Z,0
2019-03-25T01:49:58.185Z,0
2019-03-25T01:50:58.121Z,0
2019-03-25T01:51:58.106Z,0
2019-03-25T01:52:58.085Z,0
2019-03-25T01:53:58.070Z,0
2019-03-25T01:54:58.051Z,0
2019-03-25T01:55:58.033Z,0
2019-03-25T01:56:57.535Z,0
2019-03-25T01:57:57.754Z,0
2019-03-25T01:58:57.752Z,0
2019-03-25T01:59:57.720Z,0
2019-03-25T02:00:57.953Z,0
2019-03-25T02:01:57.942Z,0
2019-03-25T02:02:57.669Z,0
2019-03-25T02:03:57.906Z,0
2019-03-25T02:04:57.884Z,0
2019-03-25T02:05:57.866Z,0
2019-03-25T02:06:57.849Z,0
2019-03-25T02:07:57.592Z,0
2019-03-25T02:08:57.816Z,0
2019-03-25T02:09:57.799Z,0
2019-03-25T02:10:57.796Z,0
2019-03-25T02:11:57.769Z,0
2019-03-25T02:12:57.751Z,0
2019-03-25T02:13:57.731Z,0
2019-03-25T02:14:57.726Z,0
2019-03-25T02:15:57.706Z,0
2019-03-25T02:16:57.438Z,0
2019-03-25T02:17:57.682Z,0
2019-03-25T02:18:57.655Z,0
2019-03-25T02:19:57.638Z,0
2019-03-25T02:20:57.619Z,0
2019-03-25T02:21:57.612Z,0
2019-03-25T02:22:58.496Z,0
2019-03-25T02:23:57.572Z,0
2019-03-25T02:24:57.561Z,0
2019-03-25T02:25:57.568Z,0
2019-03-25T02:26:57.274Z,0
2019-03-25T02:27:57.255Z,0
2019-03-25T02:28:57.482Z,0
2019-03-25T02:29:57.529Z,0
2019-03-25T02:30:57.225Z,0
2019-03-25T02:31:57.440Z,0
2019-03-25T02:32:57.444Z,0
2019-03-25T02:33:57.411Z,0
2019-03-25T02:34:57.428Z,0
2019-03-25T02:35:57.390Z,0
2019-03-25T02:36:57.401Z,0
2019-03-25T02:37:57.352Z,0
2019-03-25T02:38:57.330Z,0
2019-03-25T02:39:57.316Z,0
2019-03-25T02:40:57.295Z,0
2019-03-25T02:41:57.294Z,0
2019-03-25T02:42:57.341Z,0
2019-03-25T02:43:57.005Z,0
2019-03-25T02:44:57.235Z,0
2019-03-25T02:45:57.201Z,0
2019-03-25T02:46:57.188Z,0
2019-03-25T02:47:56.976Z,0
2019-03-25T02:48:57.158Z,0
2019-03-25T02:49:56.901Z,0
2019-03-25T02:50:56.878Z,0
2019-03-25T02:51:57.098Z,0
2019-03-25T02:52:57.086Z,0
2019-03-25T02:53:57.068Z,0
2019-03-25T02:54:56.598Z,0
2019-03-25T02:55:57.045Z,0
2019-03-25T02:56:56.791Z,0
2019-03-25T02:57:57.014Z,0
2019-03-25T02:58:56.983Z,0
2019-03-25T02:59:56.970Z,0
2019-03-25T03:00:56.994Z,0
2019-03-25T03:01:56.929Z,0
2019-03-25T03:02:56.911Z,0
2019-03-25T03:03:56.894Z,0
2019-03-25T03:04:56.886Z,0
2019-03-25T03:05:56.645Z,0
2019-03-25T03:06:56.850Z,0
2019-03-25T03:07:56.826Z,0
2019-03-25T03:08:56.823Z,0
2019-03-25T03:09:56.566Z,0
2019-03-25T03:10:56.827Z,0
2019-03-25T03:11:56.759Z,0
2019-03-25T03:12:56.498Z,0
2019-03-25T03:13:56.735Z,0
2019-03-25T03:14:56.460Z,0
2019-03-25T03:15:56.455Z,0
2019-03-25T03:16:56.673Z,0
2019-03-25T03:17:56.733Z,0
2019-03-25T03:18:56.659Z,0
2019-03-25T03:20:00.031Z,0
2019-03-25T03:20:56.602Z,0
2019-03-25T03:21:56.608Z,0
2019-03-25T03:22:56.583Z,0
2019-03-25T03:23:56.552Z,0
2019-03-25T03:24:56.540Z,0
2019-03-25T03:26:04.622Z,0
2019-03-25T03:26:56.493Z,0
2019-03-25T03:27:56.480Z,0
2019-03-25T03:28:56.476Z,0
2019-03-25T03:29:56.444Z,0
2019-03-25T03:30:56.452Z,0
2019-03-25T03:31:56.442Z,0
2019-03-25T03:32:56.544Z,0
2019-03-25T03:33:56.429Z,0
2019-03-25T03:34:56.378Z,0
2019-03-25T03:35:56.370Z,0
2019-03-25T03:36:56.084Z,0
2019-03-25T03:37:56.321Z,0
2019-03-25T03:38:56.432Z,0
2019-03-25T03:39:56.275Z,0
2019-03-25T03:40:56.268Z,0
2019-03-25T03:41:56.247Z,0
2019-03-25T03:42:55.982Z,0
2019-03-25T03:43:56.234Z,0
2019-03-25T03:44:56.183Z,0
2019-03-25T03:45:56.179Z,0
2019-03-25T03:46:56.151Z,0
2019-03-25T03:47:56.138Z,0
2019-03-25T03:48:56.120Z,0
2019-03-25T03:49:56.127Z,0
2019-03-25T03:50:56.079Z,0
2019-03-25T03:51:56.072Z,0
2019-03-25T03:52:56.054Z,0
2019-03-25T03:53:56.036Z,0
2019-03-25T03:54:56.012Z,0
2019-03-25T03:56:11.415Z,0
2019-03-25T03:56:55.980Z,0
2019-03-25T03:57:55.967Z,0
2019-03-25T03:58:55.974Z,0
2019-03-25T03:59:55.948Z,0
2019-03-25T04:00:56.049Z,0
2019-03-25T04:01:55.658Z,0
2019-03-25T04:02:55.878Z,0
2019-03-25T04:03:55.876Z,0
2019-03-25T04:04:55.848Z,0
2019-03-25T04:05:55.828Z,0
2019-03-25T04:06:55.324Z,0
2019-03-25T04:07:55.789Z,0
2019-03-25T04:08:55.530Z,0
2019-03-25T04:09:55.764Z,0
2019-03-25T04:10:55.762Z,0
2019-03-25T04:11:55.727Z,0
2019-03-25T04:12:55.564Z,0
2019-03-25T04:13:55.443Z,0
2019-03-25T04:14:55.676Z,0
2019-03-25T04:15:55.664Z,0
2019-03-25T04:16:55.644Z,0
2019-03-25T04:17:55.672Z,0
2019-03-25T04:18:55.372Z,0
2019-03-25T04:19:55.608Z,0
2019-03-25T04:20:55.576Z,0
2019-03-25T04:21:55.561Z,0
2019-03-25T04:22:55.534Z,0
2019-03-25T04:23:55.529Z,0
2019-03-25T04:24:55.293Z,0
2019-03-25T04:25:55.242Z,0
2019-03-25T04:26:55.226Z,0
2019-03-25T04:27:55.485Z,0
2019-03-25T04:28:55.208Z,0
2019-03-25T04:29:55.506Z,0
2019-03-25T04:30:55.397Z,0
2019-03-25T04:31:55.405Z,0
2019-03-25T04:32:55.122Z,0
2019-03-25T04:33:55.341Z,0
2019-03-25T04:34:55.351Z,4
2019-03-25T04:35:55.311Z,4
2019-03-25T04:36:55.305Z,0
2019-03-25T04:37:56.566Z,4
2019-03-25T04:38:55.270Z,4
2019-03-25T04:39:55.326Z,4
2019-03-25T04:40:55.231Z,4
2019-03-25T04:41:55.220Z,4
2019-03-25T04:42:55.192Z,4
2019-03-25T04:43:56.775Z,4
2019-03-25T04:44:55.202Z,8
2019-03-25T04:45:55.147Z,12
2019-03-25T04:46:55.118Z,12
2019-03-25T04:47:54.852Z,12
2019-03-25T04:48:55.088Z,20
2019-03-25T04:49:55.068Z,20
2019-03-25T04:50:54.799Z,20
2019-03-25T04:51:55.036Z,24
2019-03-25T04:52:54.913Z,24
2019-03-25T04:53:54.998Z,28
2019-03-25T04:54:54.989Z,28
2019-03-25T04:55:54.977Z,32
2019-03-25T04:56:54.950Z,36
2019-03-25T04:57:54.926Z,44
2019-03-25T04:58:54.909Z,48
2019-03-25T04:59:54.890Z,60
2019-03-25T05:00:54.390Z,76
2019-03-25T05:01:54.984Z,96
2019-03-25T05:02:54.852Z,116
2019-03-25T05:03:54.822Z,128
2019-03-25T05:04:54.807Z,140
2019-03-25T05:05:54.301Z,148
2019-03-25T05:06:54.296Z,160
2019-03-25T05:07:54.505Z,188
2019-03-25T05:08:54.736Z,216
2019-03-25T05:09:54.713Z,248
2019-03-25T05:10:54.700Z,276
2019-03-25T05:11:54.680Z,296
2019-03-25T05:12:54.667Z,316
2019-03-25T05:13:54.654Z,328
2019-03-25T05:14:54.667Z,352
2019-03-25T05:15:54.613Z,364
2019-03-25T05:16:54.609Z,380
2019-03-25T05:17:54.578Z,396
2019-03-25T05:18:54.565Z,408
2019-03-25T05:19:54.300Z,444
2019-03-25T05:20:54.285Z,480
2019-03-25T05:21:54.509Z,516
2019-03-25T05:22:54.494Z,548
2019-03-25T05:23:54.482Z,576
2019-03-25T05:24:54.462Z,608
2019-03-25T05:25:54.446Z,628
2019-03-25T05:26:58.476Z,640
2019-03-25T05:27:54.161Z,636
2019-03-25T05:28:54.392Z,632
2019-03-25T05:29:54.412Z,636
2019-03-25T05:30:54.364Z,664
2019-03-25T05:31:54.336Z,716
2019-03-25T05:32:54.323Z,744
2019-03-25T05:33:54.303Z,772
2019-03-25T05:34:54.057Z,772
2019-03-25T05:35:54.268Z,772
2019-03-25T05:36:54.253Z,800
2019-03-25T05:37:54.287Z,832
2019-03-25T05:38:54.219Z,872
2019-03-25T05:39:54.201Z,916
2019-03-25T05:40:54.184Z,956
2019-03-25T05:41:54.171Z,1024
2019-03-25T05:42:53.662Z,1104
2019-03-25T05:43:54.133Z,1196
2019-03-25T05:44:54.124Z,1268
2019-03-25T05:45:54.108Z,1356
2019-03-25T05:46:54.084Z,1520
2019-03-25T05:47:54.066Z,1764
2019-03-25T05:48:54.054Z,2000
2019-03-25T05:49:54.029Z,2144
2019-03-25T05:50:54.011Z,2012
2019-03-25T05:51:54.010Z,1864
2019-03-25T05:52:53.978Z,1648
2019-03-25T05:53:53.722Z,1408
2019-03-25T05:54:53.944Z,1304
2019-03-25T05:55:53.685Z,1300
2019-03-25T05:57:04.329Z,1368
2019-03-25T05:57:53.893Z,1460
2019-03-25T05:58:53.877Z,1684
2019-03-25T05:59:53.857Z,2044
2019-03-25T06:00:53.843Z,2452
2019-03-25T06:01:53.823Z,2928
2019-03-25T06:02:53.813Z,3300
2019-03-25T06:03:53.790Z,3416
2019-03-25T06:04:53.775Z,3440
2019-03-25T06:05:53.757Z,3308
2019-03-25T06:06:54.641Z,3364
2019-03-25T06:07:53.730Z,3320
2019-03-25T06:08:53.721Z,3284
2019-03-25T06:09:53.684Z,3344
2019-03-25T06:10:53.702Z,3268
2019-03-25T06:11:53.658Z,3036
2019-03-25T06:12:53.640Z,2804
2019-03-25T06:13:53.632Z,2540
2019-03-25T06:14:53.387Z,2280
2019-03-25T06:15:53.588Z,2128
2019-03-25T06:16:53.321Z,2096
2019-03-25T06:17:53.606Z,2228
2019-03-25T06:18:53.042Z,2360
2019-03-25T06:19:53.518Z,2460
2019-03-25T06:20:53.260Z,2564
2019-03-25T06:21:53.239Z,2488
2019-03-25T06:22:53.463Z,2584
2019-03-25T06:23:53.214Z,2876
2019-03-25T06:24:53.432Z,3104
2019-03-25T06:25:53.169Z,2828
2019-03-25T06:26:53.160Z,2856
2019-03-25T06:27:53.387Z,2544
2019-03-25T06:28:53.380Z,2276
2019-03-25T06:29:53.362Z,2052
2019-03-25T06:30:53.085Z,1860
2019-03-25T06:31:53.078Z,1736
2019-03-25T06:32:53.297Z,1640
2019-03-25T06:33:53.286Z,1652
2019-03-25T06:34:53.019Z,1852
2019-03-25T06:35:53.249Z,2104
2019-03-25T06:36:53.305Z,2156
2019-03-25T06:37:53.213Z,2160
2019-03-25T06:38:53.349Z,2172
2019-03-25T06:39:53.179Z,2188
2019-03-25T06:40:54.094Z,2184
2019-03-25T06:41:53.146Z,2068
2019-03-25T06:42:52.892Z,1852
2019-03-25T06:43:53.160Z,1932
2019-03-25T06:44:53.097Z,2460
2019-03-25T06:45:53.083Z,3068
2019-03-25T06:46:53.073Z,3272
2019-03-25T06:47:53.048Z,3444
2019-03-25T06:48:53.029Z,3336
2019-03-25T06:49:53.014Z,2972
2019-03-25T06:50:52.998Z,2740
2019-03-25T06:51:52.777Z,2828
2019-03-25T06:52:52.964Z,3180
2019-03-25T06:53:52.948Z,3316
2019-03-25T06:54:52.935Z,3136
2019-03-25T06:55:52.914Z,2956
2019-03-25T06:56:52.704Z,2908
2019-03-25T06:57:52.894Z,3020
2019-03-25T06:58:52.865Z,3228
2019-03-25T06:59:52.850Z,2984
2019-03-25T07:00:52.829Z,2660
2019-03-25T07:01:52.820Z,2604
2019-03-25T07:02:52.550Z,2640
2019-03-25T07:03:52.783Z,2460
2019-03-25T07:04:52.782Z,2060
2019-03-25T07:05:52.753Z,1888
2019-03-25T07:06:52.734Z,2188
2019-03-25T07:07:52.717Z,2508
2019-03-25T07:08:52.704Z,2396
2019-03-25T07:09:52.680Z,2088
2019-03-25T07:10:52.665Z,1944
2019-03-25T07:11:52.662Z,2032
2019-03-25T07:12:52.666Z,1852
2019-03-25T07:13:52.616Z,1616
2019-03-25T07:14:52.353Z,1736
2019-03-25T07:15:52.345Z,2040
2019-03-25T07:16:52.569Z,2044
2019-03-25T07:17:52.550Z,1920
2019-03-25T07:18:52.550Z,1716
2019-03-25T07:19:52.517Z,1864
2019-03-25T07:20:52.260Z,2072
2019-03-25T07:21:52.488Z,2052
2019-03-25T07:22:52.475Z,2040
2019-03-25T07:23:52.216Z,2036
2019-03-25T07:24:52.438Z,1940
2019-03-25T07:25:52.184Z,1884
2019-03-25T07:26:52.407Z,2464
2019-03-25T07:27:52.390Z,3332
2019-03-25T07:28:52.373Z,3772
2019-03-25T07:29:52.350Z,3564
2019-03-25T07:30:52.337Z,2852
2019-03-25T07:31:52.324Z,2780
2019-03-25T07:32:52.314Z,3128
2019-03-25T07:33:52.289Z,3112
2019-03-25T07:34:52.031Z,4412
2019-03-25T07:35:52.257Z,6724
2019-03-25T07:36:52.235Z,7692
2019-03-25T07:37:52.225Z,7832
2019-03-25T07:38:51.964Z,7228
2019-03-25T07:39:52.196Z,6600
2019-03-25T07:40:52.172Z,6040
2019-03-25T07:41:52.154Z,5156
2019-03-25T07:42:52.145Z,4000
2019-03-25T07:43:52.129Z,3056
2019-03-25T07:44:52.112Z,2468
2019-03-25T07:45:52.094Z,2296
2019-03-25T07:46:51.832Z,2412
2019-03-25T07:47:52.058Z,2368
2019-03-25T07:48:52.046Z,2284
2019-03-25T07:49:52.023Z,2064
2019-03-25T07:50:52.009Z,2040
2019-03-25T07:51:52.036Z,2280
2019-03-25T07:52:51.733Z,2468
2019-03-25T07:53:53.484Z,2620
2019-03-25T07:54:51.755Z,2700
2019-03-25T07:55:51.969Z,2504
2019-03-25T07:56:51.998Z,1836
2019-03-25T07:57:55.833Z,1296
2019-03-25T07:58:51.911Z,1144
2019-03-25T07:59:51.898Z,1212
2019-03-25T08:00:51.899Z,1428
2019-03-25T08:01:51.661Z,1548
2019-03-25T08:02:51.907Z,1500
2019-03-25T08:03:51.825Z,1416
2019-03-25T08:04:51.886Z,1388
2019-03-25T08:05:51.779Z,2016
2019-03-25T08:06:51.773Z,1788
2019-03-25T08:07:51.796Z,1884
2019-03-25T08:09:03.046Z,2184
2019-03-25T08:09:52.522Z,2572
2019-03-25T08:10:51.784Z,2828
2019-03-25T08:11:51.730Z,2540
2019-03-25T08:12:51.707Z,2436
2019-03-25T08:13:51.427Z,2828
2019-03-25T08:14:51.408Z,3164
2019-03-25T08:15:51.388Z,3064
2019-03-25T08:16:51.344Z,2468
2019-03-25T08:17:51.321Z,2140
2019-03-25T08:18:51.557Z,1984
2019-03-25T08:19:51.537Z,1752
2019-03-25T08:20:51.277Z,1792
2019-03-25T08:21:51.259Z,1432
2019-03-25T08:22:51.483Z,1700
2019-03-25T08:23:51.470Z,1816
2019-03-25T08:24:51.214Z,1944
2019-03-25T08:25:51.440Z,2076
2019-03-25T08:26:51.422Z,3404
2019-03-25T08:28:02.395Z,2756
2019-03-25T08:28:50.910Z,2676
2019-03-25T08:29:51.374Z,2204
2019-03-25T08:30:51.362Z,1680
2019-03-25T08:31:51.355Z,2420
2019-03-25T08:32:51.078Z,2084
2019-03-25T08:33:51.299Z,2336
2019-03-25T08:34:51.284Z,2508
2019-03-25T08:35:51.023Z,2144
2019-03-25T08:36:51.006Z,2576
2019-03-25T08:37:50.990Z,2428
2019-03-25T08:38:50.983Z,2112
2019-03-25T08:39:51.205Z,2448
2019-03-25T08:40:51.194Z,2336
2019-03-25T08:41:51.172Z,2756
2019-03-25T08:42:51.154Z,3720
2019-03-25T08:43:52.909Z,3968
2019-03-25T08:44:51.123Z,4044
2019-03-25T08:45:51.107Z,2692
2019-03-25T08:46:50.843Z,2216
2019-03-25T08:47:51.075Z,2216
2019-03-25T08:48:51.053Z,2172
2019-03-25T08:49:51.039Z,1828
2019-03-25T08:50:50.798Z,2384
2019-03-25T08:51:50.809Z,1980
2019-03-25T08:52:50.997Z,2024
2019-03-25T08:53:50.973Z,1860
2019-03-25T08:54:50.721Z,1860
2019-03-25T08:55:50.943Z,1620
2019-03-25T08:56:50.703Z,1288
2019-03-25T08:57:50.906Z,1132
2019-03-25T08:58:50.640Z,944
2019-03-25T08:59:50.871Z,692
2019-03-25T09:00:50.611Z,1352
2019-03-25T09:01:50.839Z,2588
2019-03-25T09:02:50.820Z,2816
2019-03-25T09:03:50.558Z,4172
2019-03-25T09:04:50.795Z,5136
2019-03-25T09:05:50.780Z,6576
2019-03-25T09:06:52.731Z,7608
2019-03-25T09:07:50.742Z,7376
2019-03-25T09:08:50.720Z,5896
2019-03-25T09:09:50.703Z,6392
2019-03-25T09:10:50.692Z,6892
2019-03-25T09:11:51.722Z,7808
2019-03-25T09:12:50.652Z,7336
2019-03-25T09:13:50.638Z,5028
2019-03-25T09:14:50.620Z,6476
2019-03-25T09:15:50.602Z,8868
2019-03-25T09:16:50.640Z,10604
2019-03-25T09:17:50.573Z,9996
2019-03-25T09:18:50.558Z,5148
2019-03-25T09:19:50.537Z,4580
2019-03-25T09:20:50.520Z,5184
2019-03-25T09:21:50.504Z,3360
2019-03-25T09:22:50.243Z,4052
2019-03-25T09:23:50.468Z,4176
2019-03-25T09:24:50.458Z,3700
2019-03-25T09:25:50.443Z,3484
2019-03-25T09:26:50.428Z,2748
2019-03-25T09:27:50.404Z,1884
2019-03-25T09:28:50.196Z,1600
2019-03-25T09:29:50.132Z,1756
2019-03-25T09:30:50.359Z,2880
2019-03-25T09:31:50.102Z,3488
2019-03-25T09:32:50.326Z,2676
2019-03-25T09:33:50.068Z,2872
2019-03-25T09:34:50.290Z,2900
2019-03-25T09:35:50.151Z,2996
2019-03-25T09:36:50.266Z,4584
2019-03-25T09:37:52.694Z,7240
2019-03-25T09:38:49.989Z,8020
2019-03-25T09:39:49.968Z,5864
2019-03-25T09:40:50.191Z,6028
2019-03-25T09:41:50.189Z,5532
2019-03-25T09:42:50.165Z,3752
2019-03-25T09:43:50.172Z,2272
2019-03-25T09:44:49.889Z,3612
2019-03-25T09:45:50.128Z,5420
2019-03-25T09:46:50.136Z,4216
2019-03-25T09:47:50.089Z,4352
2019-03-25T09:48:50.069Z,5936
2019-03-25T09:49:50.077Z,6704
2019-03-25T09:50:50.038Z,7720
2019-03-25T09:51:52.713Z,9528
2019-03-25T09:52:50.006Z,11000
2019-03-25T09:53:49.984Z,10504
2019-03-25T09:54:49.969Z,11848
2019-03-25T09:55:49.710Z,11724
2019-03-25T09:56:49.943Z,8900
2019-03-25T09:57:49.922Z,8152
2019-03-25T09:58:49.925Z,9056
2019-03-25T09:59:49.901Z,9072
2019-03-25T10:00:52.001Z,10108
2019-03-25T10:01:49.859Z,10180
2019-03-25T10:02:49.848Z,10532
2019-03-25T10:03:49.842Z,10660
2019-03-25T10:04:49.816Z,9624
2019-03-25T10:05:49.799Z,9356
2019-03-25T10:06:49.788Z,10188
2019-03-25T10:07:49.776Z,9992
2019-03-25T10:08:49.753Z,9092
2019-03-25T10:09:49.744Z,9504
2019-03-25T10:10:49.495Z,10868
2019-03-25T10:11:49.709Z,9796
2019-03-25T10:12:49.698Z,6712
2019-03-25T10:13:49.447Z,5388
2019-03-25T10:14:49.730Z,4996
2019-03-25T10:15:49.651Z,4312
2019-03-25T10:16:49.632Z,3636
2019-03-25T10:17:49.629Z,5048
2019-03-25T10:18:49.608Z,8376
2019-03-25T10:19:49.591Z,9088
2019-03-25T10:20:49.338Z,7852
2019-03-25T10:21:49.577Z,6792
2019-03-25T10:22:49.551Z,6084
2019-03-25T10:23:49.410Z,6128
2019-03-25T10:24:49.518Z,6680
2019-03-25T10:25:49.256Z,7636
2019-03-25T10:26:49.500Z,8420
2019-03-25T10:27:49.472Z,8780
2019-03-25T10:28:55.687Z,7596
2019-03-25T10:29:49.477Z,6608
2019-03-25T10:30:49.434Z,6736
2019-03-25T10:31:49.415Z,6544
2019-03-25T10:32:49.397Z,6840
2019-03-25T10:33:49.435Z,7064
2019-03-25T10:34:49.372Z,7260
2019-03-25T10:35:49.358Z,7028
2019-03-25T10:36:49.351Z,5924
2019-03-25T10:37:48.845Z,5964
2019-03-25T10:38:49.309Z,7328
2019-03-25T10:39:49.049Z,6636
2019-03-25T10:40:49.278Z,4600
2019-03-25T10:41:49.264Z,4060
2019-03-25T10:42:49.015Z,3500
2019-03-25T10:43:49.237Z,3744
2019-03-25T10:44:48.973Z,5356
2019-03-25T10:45:49.201Z,7168
2019-03-25T10:46:49.201Z,8924
2019-03-25T10:47:49.171Z,9604
2019-03-25T10:48:49.255Z,9680
2019-03-25T10:49:48.899Z,9904
2019-03-25T10:50:49.132Z,12532
2019-03-25T10:51:48.866Z,12616
2019-03-25T10:52:48.852Z,11072
2019-03-25T10:53:48.853Z,10660
2019-03-25T10:54:49.615Z,10460
2019-03-25T10:55:49.061Z,9612
2019-03-25T10:56:56.494Z,8444
2019-03-25T10:57:49.025Z,8628
2019-03-25T10:58:57.661Z,9708
2019-03-25T10:59:48.995Z,9728
2019-03-25T11:00:48.981Z,10120
2019-03-25T11:01:48.963Z,13072
2019-03-25T11:02:48.959Z,12728
2019-03-25T11:03:48.938Z,10916
2019-03-25T11:04:48.924Z,10564
2019-03-25T11:05:48.670Z,11680
2019-03-25T11:06:48.660Z,12156
2019-03-25T11:07:49.414Z,11476
2019-03-25T11:08:48.620Z,9500
2019-03-25T11:09:48.864Z,7948
2019-03-25T11:10:48.834Z,6816
2019-03-25T11:11:48.576Z,7008
2019-03-25T11:12:48.565Z,7796
2019-03-25T11:13:48.798Z,7800
2019-03-25T11:14:48.792Z,6952
2019-03-25T11:15:48.774Z,5972
2019-03-25T11:16:48.506Z,5872
2019-03-25T11:17:48.756Z,6540
2019-03-25T11:18:48.233Z,7780
2019-03-25T11:19:48.758Z,8868
2019-03-25T11:20:48.702Z,9304
2019-03-25T11:21:48.699Z,6848
2019-03-25T11:22:48.689Z,5056
2019-03-25T11:23:48.667Z,4176
2019-03-25T11:24:48.648Z,4128
2019-03-25T11:25:48.627Z,5464
2019-03-25T11:26:48.368Z,5432
2019-03-25T11:27:59.012Z,4384
2019-03-25T11:28:48.584Z,3984
2019-03-25T11:29:48.573Z,3972
2019-03-25T11:30:48.558Z,4088
2019-03-25T11:31:48.296Z,4560
2019-03-25T11:32:48.531Z,5988
2019-03-25T11:33:48.517Z,7948
2019-03-25T11:34:48.522Z,7928
2019-03-25T11:35:48.496Z,7608
2019-03-25T11:36:48.476Z,7868
2019-03-25T11:37:48.465Z,9072
2019-03-25T11:38:48.452Z,10588
2019-03-25T11:39:48.192Z,10832
2019-03-25T11:40:48.214Z,9540
2019-03-25T11:41:48.412Z,8184
2019-03-25T11:42:48.402Z,7460
2019-03-25T11:43:48.413Z,6848
2019-03-25T11:44:48.387Z,6016
2019-03-25T11:45:48.366Z,5544
2019-03-25T11:46:48.090Z,5704
2019-03-25T11:47:48.096Z,6200
2019-03-25T11:48:48.335Z,7108
2019-03-25T11:49:49.372Z,7828
2019-03-25T11:50:48.284Z,8512
2019-03-25T11:51:48.273Z,9288
2019-03-25T11:52:48.311Z,9724
2019-03-25T11:53:48.253Z,9432
2019-03-25T11:54:48.231Z,8160
2019-03-25T11:55:48.215Z,6948
2019-03-25T11:56:48.211Z,5928
2019-03-25T11:57:48.190Z,4760
2019-03-25T11:58:48.177Z,3768
2019-03-25T11:59:48.164Z,3496
2019-03-25T12:00:47.912Z,3448
2019-03-25T12:01:48.140Z,4660
2019-03-25T12:02:48.131Z,5412
2019-03-25T12:03:48.110Z,5312
2019-03-25T12:04:48.109Z,5468
2019-03-25T12:05:47.834Z,4508
2019-03-25T12:06:47.830Z,3740
2019-03-25T12:07:47.853Z,3868
2019-03-25T12:08:47.794Z,4496
2019-03-25T12:09:48.810Z,5684
2019-03-25T12:10:48.052Z,6888
2019-03-25T12:11:48.048Z,7736
2019-03-25T12:12:47.742Z,7636
2019-03-25T12:13:47.995Z,8504
2019-03-25T12:14:47.959Z,9780
2019-03-25T12:15:47.946Z,9472
2019-03-25T12:16:47.937Z,8692
2019-03-25T12:17:47.680Z,8484
2019-03-25T12:18:47.906Z,9252
2019-03-25T12:19:47.902Z,10448
2019-03-25T12:20:47.876Z,11428
2019-03-25T12:21:47.867Z,11344
2019-03-25T12:22:47.860Z,11444
2019-03-25T12:23:47.842Z,11696
2019-03-25T12:24:47.825Z,11756
2019-03-25T12:25:47.819Z,11080
2019-03-25T12:26:47.560Z,10884
2019-03-25T12:27:47.564Z,10824
2019-03-25T12:28:47.775Z,10660
2019-03-25T12:29:47.537Z,10816
2019-03-25T12:30:47.757Z,10864
2019-03-25T12:31:47.743Z,10720
2019-03-25T12:32:47.727Z,10000
2019-03-25T12:33:47.468Z,9424
2019-03-25T12:34:48.020Z,9176
2019-03-25T12:35:47.439Z,8944
2019-03-25T12:36:47.683Z,9240
2019-03-25T12:37:47.415Z,9516
2019-03-25T12:38:47.651Z,9356
2019-03-25T12:39:47.645Z,9132
2019-03-25T12:40:47.625Z,9344
2019-03-25T12:41:47.622Z,9640
2019-03-25T12:42:47.596Z,10104
2019-03-25T12:43:47.592Z,10240
2019-03-25T12:44:47.578Z,10380
2019-03-25T12:45:47.562Z,10028
2019-03-25T12:46:47.554Z,9780
2019-03-25T12:47:47.539Z,8688
2019-03-25T12:48:47.277Z,8080
2019-03-25T12:49:47.263Z,7892
2019-03-25T12:50:47.251Z,7432
2019-03-25T12:51:48.425Z,6688
2019-03-25T12:52:47.225Z,6152
2019-03-25T12:53:47.456Z,6108
2019-03-25T12:54:47.200Z,5984
2019-03-25T12:55:47.433Z,5712
2019-03-25T12:56:47.429Z,5548
2019-03-25T12:57:47.526Z,5648
2019-03-25T12:58:47.398Z,5708
2019-03-25T12:59:48.789Z,6168
2019-03-25T13:00:47.370Z,6512
2019-03-25T13:01:57.409Z,7000
2019-03-25T13:02:47.098Z,7448
2019-03-25T13:03:47.718Z,8092
2019-03-25T13:04:47.323Z,8396
2019-03-25T13:05:47.340Z,7684
2019-03-25T13:06:47.299Z,6580
2019-03-25T13:07:47.031Z,5972
2019-03-25T13:08:47.269Z,5812
2019-03-25T13:09:47.266Z,5756
2019-03-25T13:10:47.268Z,5584
2019-03-25T13:11:47.233Z,5392
2019-03-25T13:12:47.216Z,5072
2019-03-25T13:13:47.235Z,4880
2019-03-25T13:14:47.190Z,5024
2019-03-25T13:15:47.179Z,5060
2019-03-25T13:16:47.166Z,4816
2019-03-25T13:17:47.165Z,4180
2019-03-25T13:18:46.896Z,3372
2019-03-25T13:19:47.132Z,2384
2019-03-25T13:20:47.131Z,1972
2019-03-25T13:21:47.111Z,1692
2019-03-25T13:22:46.842Z,1584
2019-03-25T13:23:47.105Z,1472
2019-03-25T13:24:47.076Z,1832
2019-03-25T13:25:47.071Z,2084
2019-03-25T13:26:47.046Z,2472
2019-03-25T13:27:47.027Z,2880
2019-03-25T13:28:47.012Z,3036
2019-03-25T13:29:57.172Z,2984
2019-03-25T13:30:46.795Z,2872
2019-03-25T13:31:46.720Z,2556
2019-03-25T13:32:46.952Z,2344
2019-03-25T13:33:47.377Z,1544
2019-03-25T13:34:46.964Z,2044
2019-03-25T13:35:46.912Z,2152
2019-03-25T13:36:46.902Z,2004
2019-03-25T13:37:46.888Z,1536
2019-03-25T13:38:46.868Z,1256
2019-03-25T13:39:46.856Z,1288
2019-03-25T13:40:46.843Z,1792
2019-03-25T13:41:46.826Z,2376
2019-03-25T13:42:46.829Z,3488
2019-03-25T13:43:48.618Z,5032
2019-03-25T13:44:46.773Z,6488
2019-03-25T13:45:46.530Z,7512
2019-03-25T13:46:46.497Z,7976
2019-03-25T13:47:46.730Z,7944
2019-03-25T13:48:46.719Z,7668